»·PEaware :: N878FA KMYF-KNYL

N878FA :: KMYF-KNYL

FLIGHT INFORMATION

Flight Status: Arrived
Operator: Privately registered:
United States
More flights under this callsign
Pilot: D V. (24879)
Aircraft: PIPER PA-28 CHEROKEE ARCHER
(P28A)
More flights by this aircraft type
Origin: KMYF Montgomery
United States
Destination: KNYL Yuma MCAS/Yuma Intl
United States
More flights between these airports :: More routes between these airports
Route:
File this flight plan on PilotEdge
Remarks:
Altitude:
(Current/Filed)
7,500ft
Speed:
(Current/Filed)
95kts
Departed: 13-Sep-20 03:27 PM
Arrived: 13-Sep-20 04:43 PM
Distance/Time
Traveled:
128nm/1:16
Distance/Time
To Go:
Arrived

Flight Plot

Page will automatically refresh every two minutes.


Map Options




Map Legend


Flown Route
Filed Route
Departure Airport
Arrival Airport
Navaid (VOR, NDB)
Fix

Horizontal Profiles

Position Reports

Time Latitude Longitude Heading Altitude Ground
Speed
13-Sep-20 14:58 32.813518 -117.141462 22 412ft 0kts
13-Sep-20 14:59 32.813518 -117.141462 22 412ft 0kts
13-Sep-20 15:00 32.813518 -117.141462 22 412ft 0kts
13-Sep-20 15:02 32.813518 -117.141462 22 412ft 0kts
13-Sep-20 15:02 32.813518 -117.141462 22 412ft 0kts
13-Sep-20 15:03 32.813518 -117.141462 22 412ft 0kts
13-Sep-20 15:04 32.813518 -117.141462 22 412ft 0kts
13-Sep-20 15:05 32.813523 -117.141460 22 412ft 0kts
13-Sep-20 15:06 32.813523 -117.141460 22 412ft 0kts
13-Sep-20 15:07 32.813523 -117.141460 22 412ft 0kts
13-Sep-20 15:08 32.813523 -117.141460 22 412ft 0kts
13-Sep-20 15:09 32.813523 -117.141460 22 412ft 0kts
13-Sep-20 15:10 32.813523 -117.141460 22 412ft 0kts
13-Sep-20 15:11 32.813523 -117.141460 22 412ft 0kts
13-Sep-20 15:12 32.813523 -117.141460 22 412ft 0kts
13-Sep-20 15:13 32.813523 -117.141460 22 412ft 0kts
13-Sep-20 15:14 32.813523 -117.141460 22 412ft 0kts
13-Sep-20 15:15 32.813523 -117.141460 22 412ft 0kts
13-Sep-20 15:16 32.813523 -117.141460 22 412ft 0kts
13-Sep-20 15:17 32.813782 -117.141128 59 413ft 4kts
13-Sep-20 15:18 32.813198 -117.137816 116 418ft 22kts
13-Sep-20 15:19 32.811193 -117.133002 106 415ft 14kts
13-Sep-20 15:20 32.812026 -117.131510 23 419ft 0kts
13-Sep-20 15:21 32.812026 -117.131510 23 419ft 0kts
13-Sep-20 15:22 32.812026 -117.131510 23 419ft 0kts
13-Sep-20 15:23 32.812026 -117.131510 23 419ft 0kts
13-Sep-20 15:24 32.812026 -117.131510 23 419ft 0kts
13-Sep-20 15:25 32.812028 -117.131509 23 419ft 0kts
13-Sep-20 15:26 32.818279 -117.144765 296 730ft 76kts
13-Sep-20 15:27 32.812480 -117.162138 141 1464ft 90kts
13-Sep-20 15:28 32.805777 -117.132096 95 2042ft 96kts
13-Sep-20 15:29 32.802788 -117.100681 94 2692ft 94kts
13-Sep-20 15:30 32.799562 -117.069398 95 3064ft 95kts
13-Sep-20 15:31 32.795966 -117.038004 104 3476ft 97kts
13-Sep-20 15:32 32.794098 -117.005225 89 4049ft 100kts
13-Sep-20 15:33 32.794458 -116.971786 91 4264ft 102kts
13-Sep-20 15:34 32.796109 -116.938233 86 4394ft 100kts
13-Sep-20 15:35 32.799269 -116.904836 80 4632ft 103kts
13-Sep-20 15:36 32.804604 -116.866761 82 4456ft 122kts
13-Sep-20 15:37 32.809936 -116.826723 81 4594ft 119kts
13-Sep-20 15:38 32.810514 -116.788110 84 4861ft 121kts
13-Sep-20 15:39 32.811377 -116.749596 94 5249ft 116kts
13-Sep-20 15:40 32.806811 -116.710216 102 5502ft 121kts
13-Sep-20 15:41 32.800628 -116.670521 100 5755ft 122kts
13-Sep-20 15:42 32.795565 -116.630704 94 5990ft 122kts
13-Sep-20 15:43 32.790284 -116.590794 103 6048ft 122kts
13-Sep-20 15:44 32.786601 -116.551436 94 6211ft 115kts
13-Sep-20 15:45 32.784859 -116.515578 93 6704ft 104kts
13-Sep-20 15:46 32.783154 -116.481338 100 7195ft 103kts
13-Sep-20 15:47 32.780352 -116.446442 93 7500ft 119kts
13-Sep-20 15:48 32.778990 -116.405268 91 7326ft 127kts
13-Sep-20 15:49 32.779960 -116.364911 87 7318ft 120kts
13-Sep-20 15:50 32.778575 -116.325506 95 7170ft 119kts
13-Sep-20 15:51 32.775156 -116.286519 100 6962ft 118kts
13-Sep-20 15:52 32.771315 -116.247929 93 6722ft 120kts
13-Sep-20 15:53 32.763299 -116.209866 100 6474ft 119kts
13-Sep-20 15:54 32.759388 -116.171069 89 6235ft 118kts
13-Sep-20 15:55 32.762523 -116.132485 79 5936ft 121kts
13-Sep-20 15:56 32.766960 -116.093277 83 5629ft 120kts
13-Sep-20 15:57 32.767698 -116.054955 96 5468ft 113kts
13-Sep-20 15:58 32.762423 -116.018724 94 5390ft 110kts
13-Sep-20 15:59 32.761352 -115.982968 91 5462ft 107kts
13-Sep-20 16:00 32.758629 -115.947787 94 5589ft 106kts
13-Sep-20 16:01 32.755965 -115.912593 91 5667ft 107kts
13-Sep-20 16:03 32.756747 -115.877009 89 5641ft 115kts
13-Sep-20 16:04 32.755415 -115.838944 83 5565ft 115kts
13-Sep-20 16:05 32.757805 -115.801204 83 5512ft 112kts
13-Sep-20 16:06 32.758836 -115.763991 87 5486ft 111kts
13-Sep-20 16:07 32.759705 -115.726705 88 5452ft 112kts
13-Sep-20 16:08 32.758814 -115.689614 91 5427ft 112kts
13-Sep-20 16:09 32.756336 -115.652503 95 5405ft 112kts
13-Sep-20 16:10 32.752857 -115.615528 93 5387ft 112kts
13-Sep-20 16:11 32.749774 -115.578535 96 5367ft 112kts
13-Sep-20 16:12 32.749204 -115.541694 86 5353ft 111kts
13-Sep-20 16:13 32.748926 -115.505601 92 5427ft 109kts
13-Sep-20 16:14 32.749355 -115.469413 88 5467ft 110kts
13-Sep-20 16:15 32.748194 -115.433438 90 5519ft 109kts
13-Sep-20 16:16 32.750083 -115.397452 95 5558ft 109kts
13-Sep-20 16:17 32.749968 -115.361272 89 5603ft 109kts
13-Sep-20 16:18 32.744737 -115.326521 75 5626ft 108kts
13-Sep-20 16:19 32.751479 -115.291335 79 5653ft 109kts
13-Sep-20 16:20 32.756486 -115.255669 77 5697ft 109kts
13-Sep-20 16:20 32.760935 -115.225329 80 5453ft 112kts
13-Sep-20 16:22 32.762041 -115.182285 97 5098ft 112kts
13-Sep-20 16:22 32.758984 -115.151762 92 4844ft 111kts
13-Sep-20 16:23 32.757474 -115.113889 99 4541ft 117kts
13-Sep-20 16:24 32.755798 -115.074697 89 4145ft 120kts
13-Sep-20 16:26 32.757941 -115.028653 83 3726ft 119kts
13-Sep-20 16:26 32.758701 -114.996670 91 3425ft 115kts
13-Sep-20 16:27 32.755393 -114.959680 98 3326ft 111kts
13-Sep-20 16:28 32.750603 -114.922593 91 3219ft 113kts
13-Sep-20 16:29 32.747284 -114.885185 78 3158ft 114kts
13-Sep-20 16:30 32.755084 -114.849207 79 3063ft 113kts
13-Sep-20 16:31 32.756676 -114.811400 85 2909ft 112kts
13-Sep-20 16:32 32.754361 -114.774346 87 2694ft 105kts
13-Sep-20 16:33 32.757813 -114.738507 84 2567ft 109kts
13-Sep-20 16:34 32.756599 -114.702366 102 2485ft 110kts
13-Sep-20 16:35 32.750490 -114.666718 108 2404ft 109kts
13-Sep-20 16:36 32.731004 -114.640221 145 2052ft 106kts
13-Sep-20 16:37 32.706222 -114.623284 154 1515ft 103kts
13-Sep-20 16:38 32.682198 -114.606691 147 1169ft 99kts
13-Sep-20 16:39 32.671944 -114.581153 82 893ft 82kts
13-Sep-20 16:40 32.664907 -114.563330 232 830ft 63kts
13-Sep-20 16:41 32.666169 -114.585378 272 254ft 61kts
13-Sep-20 16:42 32.666004 -114.599394 268 195ft 24kts
13-Sep-20 16:43 32.663960 -114.605581 178 188ft 14kts
13-Sep-20 16:44 32.663465 -114.606641 209 188ft 0kts
13-Sep-20 16:45 32.663465 -114.606641 209 188ft 0kts

Navigation Log

Ident Type
Flight plan parsing failed, navigation log unavailable